Terminal Aerodrome Forecast
Issued by NWS

Home | Current Version | Previous Version | Text Only | Print | Product List | Glossary On
Versions: 1 2 3 4 5 6 7 8 9 10 11 12 13 14 15 16 17 18 19 20 21 22 23 24 25
786
FTUS41 KAKQ 261920 AAA
TAFPHF
TAF AMD
KPHF 261920Z 2619/2718 02013G22KT P6SM VCSH OVC012
      TEMPO 2620/2621 3SM SHRA BR OVC008
     FM262100 03015G23KT P6SM VCSH BKN015
     FM270000 03012G20KT P6SM BKN020
     FM270800 01014G22KT P6SM BKN015=

USA.gov is the U.S. government's official web portal to all federal, state and local government web resources and services.